Terminal Aerodrome Forecast
Issued by NWS Mt. Holly, NJ

Home | Current Version | Previous Version | Text Only | Print | Product List | Glossary On
Versions: 1 2 3 4 5 6 7 8 9 10 11 12 13 14 15
000
FTUS41 KPHI 281727
TAFABE
TAF
KABE 281727Z 2818/0118 27003KT P6SM SCT250
     FM010600 VRB02KT P6SM OVC120
     FM011300 14004KT P6SM OVC035
     FM011700 15004KT 4SM -SN OVC020=

USA.gov is the U.S. government's official web portal to all federal, state and local government web resources and services.